sensor_id;sensor_type;location;lat;lon;timestamp;P1;durP1;ratioP1;P2;durP2;ratioP2
42066;SDS011;27734;47.028;28.820;2023-04-25T00:00:04;12.50;;;5.30;;
42066;SDS011;27734;47.028;28.820;2023-04-25T00:02:59;13.33;;;6.50;;
42066;SDS011;27734;47.028;28.820;2023-04-25T00:05:27;16.67;;;6.10;;
42066;SDS011;27734;47.028;28.820;2023-04-25T00:07:57;14.33;;;6.30;;
42066;SDS011;27734;47.028;28.820;2023-04-25T00:10:26;15.43;;;6.90;;
42066;SDS011;27734;47.028;28.820;2023-04-25T00:12:55;10.93;;;5.90;;
42066;SDS011;27734;47.028;28.820;2023-04-25T00:15:24;12.97;;;6.00;;
42066;SDS011;27734;47.028;28.820;2023-04-25T00:17:53;13.87;;;5.73;;
42066;SDS011;27734;47.028;28.820;2023-04-25T00:20:21;15.43;;;6.40;;
42066;SDS011;27734;47.028;28.820;2023-04-25T00:22:50;12.97;;;5.70;;
42066;SDS011;27734;47.028;28.820;2023-04-25T00:25:20;12.60;;;5.77;;
42066;SDS011;27734;47.028;28.820;2023-04-25T00:27:49;13.23;;;5.80;;
42066;SDS011;27734;47.028;28.820;2023-04-25T00:30:18;12.50;;;5.93;;
42066;SDS011;27734;47.028;28.820;2023-04-25T00:32:46;13.60;;;5.67;;
42066;SDS011;27734;47.028;28.820;2023-04-25T00:35:17;14.70;;;5.80;;
42066;SDS011;27734;47.028;28.820;2023-04-25T00:37:45;17.43;;;5.90;;
42066;SDS011;27734;47.028;28.820;2023-04-25T00:40:14;13.57;;;5.93;;
42066;SDS011;27734;47.028;28.820;2023-04-25T00:42:42;14.27;;;5.93;;
42066;SDS011;27734;47.028;28.820;2023-04-25T00:45:13;13.03;;;6.00;;
42066;SDS011;27734;47.028;28.820;2023-04-25T00:47:42;12.40;;;6.23;;
42066;SDS011;27734;47.028;28.820;2023-04-25T00:50:12;15.27;;;6.13;;
42066;SDS011;27734;47.028;28.820;2023-04-25T00:52:41;12.27;;;5.67;;
42066;SDS011;27734;47.028;28.820;2023-04-25T00:55:12;12.73;;;5.60;;
42066;SDS011;27734;47.028;28.820;2023-04-25T00:57:42;16.07;;;6.30;;
42066;SDS011;27734;47.028;28.820;2023-04-25T01:00:12;13.30;;;6.30;;
42066;SDS011;27734;47.028;28.820;2023-04-25T01:02:41;11.87;;;5.80;;
42066;SDS011;27734;47.028;28.820;2023-04-25T01:05:11;15.65;;;6.20;;
42066;SDS011;27734;47.028;28.820;2023-04-25T01:07:40;17.27;;;6.80;;
42066;SDS011;27734;47.028;28.820;2023-04-25T01:10:09;13.57;;;6.17;;
42066;SDS011;27734;47.028;28.820;2023-04-25T01:12:38;13.23;;;6.13;;
42066;SDS011;27734;47.028;28.820;2023-04-25T01:15:07;12.70;;;5.53;;
42066;SDS011;27734;47.028;28.820;2023-04-25T01:17:36;12.67;;;5.57;;
42066;SDS011;27734;47.028;28.820;2023-04-25T01:20:07;15.17;;;5.83;;
42066;SDS011;27734;47.028;28.820;2023-04-25T01:22:38;13.83;;;6.10;;
42066;SDS011;27734;47.028;28.820;2023-04-25T01:25:07;10.47;;;5.57;;
42066;SDS011;27734;47.028;28.820;2023-04-25T01:27:37;13.50;;;5.67;;
42066;SDS011;27734;47.028;28.820;2023-04-25T01:30:07;14.03;;;6.10;;
42066;SDS011;27734;47.028;28.820;2023-04-25T01:32:37;11.07;;;6.00;;
42066;SDS011;27734;47.028;28.820;2023-04-25T01:35:08;12.80;;;5.90;;
42066;SDS011;27734;47.028;28.820;2023-04-25T01:37:38;14.90;;;6.30;;
42066;SDS011;27734;47.028;28.820;2023-04-25T01:40:08;10.70;;;5.87;;
42066;SDS011;27734;47.028;28.820;2023-04-25T01:42:39;18.17;;;6.80;;
42066;SDS011;27734;47.028;28.820;2023-04-25T01:45:10;13.10;;;5.97;;
42066;SDS011;27734;47.028;28.820;2023-04-25T01:47:40;11.00;;;5.70;;
42066;SDS011;27734;47.028;28.820;2023-04-25T01:50:10;14.60;;;5.87;;
42066;SDS011;27734;47.028;28.820;2023-04-25T01:52:39;15.03;;;6.00;;
42066;SDS011;27734;47.028;28.820;2023-04-25T01:55:09;13.33;;;5.87;;
42066;SDS011;27734;47.028;28.820;2023-04-25T01:57:42;15.17;;;6.13;;
42066;SDS011;27734;47.028;28.820;2023-04-25T02:00:12;14.97;;;5.83;;
42066;SDS011;27734;47.028;28.820;2023-04-25T02:02:41;13.73;;;5.73;;
42066;SDS011;27734;47.028;28.820;2023-04-25T02:05:31;15.53;;;6.30;;
42066;SDS011;27734;47.028;28.820;2023-04-25T02:08:04;14.87;;;5.87;;
42066;SDS011;27734;47.028;28.820;2023-04-25T02:10:34;15.20;;;7.00;;
42066;SDS011;27734;47.028;28.820;2023-04-25T02:13:14;15.70;;;6.53;;
42066;SDS011;27734;47.028;28.820;2023-04-25T02:16:05;13.60;;;5.90;;
42066;SDS011;27734;47.028;28.820;2023-04-25T02:18:34;17.83;;;6.43;;
42066;SDS011;27734;47.028;28.820;2023-04-25T02:21:07;13.00;;;5.93;;
42066;SDS011;27734;47.028;28.820;2023-04-25T02:23:36;19.53;;;6.20;;
42066;SDS011;27734;47.028;28.820;2023-04-25T02:26:05;15.33;;;7.07;;
42066;SDS011;27734;47.028;28.820;2023-04-25T02:28:36;11.60;;;6.07;;
42066;SDS011;27734;47.028;28.820;2023-04-25T02:31:05;18.07;;;6.37;;
42066;SDS011;27734;47.028;28.820;2023-04-25T02:33:33;13.63;;;6.10;;
42066;SDS011;27734;47.028;28.820;2023-04-25T02:36:02;14.00;;;5.83;;
42066;SDS011;27734;47.028;28.820;2023-04-25T02:38:31;13.70;;;6.50;;
42066;SDS011;27734;47.028;28.820;2023-04-25T02:41:00;17.80;;;6.35;;
42066;SDS011;27734;47.028;28.820;2023-04-25T02:43:29;18.73;;;6.20;;
42066;SDS011;27734;47.028;28.820;2023-04-25T02:45:57;14.90;;;6.30;;
42066;SDS011;27734;47.028;28.820;2023-04-25T02:48:26;17.17;;;6.60;;
42066;SDS011;27734;47.028;28.820;2023-04-25T02:50:56;14.30;;;6.43;;
42066;SDS011;27734;47.028;28.820;2023-04-25T02:53:25;15.63;;;6.43;;
42066;SDS011;27734;47.028;28.820;2023-04-25T02:55:53;17.87;;;6.60;;
42066;SDS011;27734;47.028;28.820;2023-04-25T02:58:25;17.37;;;6.70;;
42066;SDS011;27734;47.028;28.820;2023-04-25T03:00:54;15.93;;;6.83;;
42066;SDS011;27734;47.028;28.820;2023-04-25T03:03:22;15.85;;;6.60;;
42066;SDS011;27734;47.028;28.820;2023-04-25T03:05:51;13.40;;;6.47;;
42066;SDS011;27734;47.028;28.820;2023-04-25T03:08:24;15.07;;;6.33;;
42066;SDS011;27734;47.028;28.820;2023-04-25T03:10:56;17.97;;;6.50;;
42066;SDS011;27734;47.028;28.820;2023-04-25T03:13:25;14.37;;;6.80;;
42066;SDS011;27734;47.028;28.820;2023-04-25T03:15:57;16.90;;;7.60;;
42066;SDS011;27734;47.028;28.820;2023-04-25T03:18:26;16.40;;;7.07;;
42066;SDS011;27734;47.028;28.820;2023-04-25T03:20:55;16.63;;;6.70;;
42066;SDS011;27734;47.028;28.820;2023-04-25T03:23:24;15.63;;;6.73;;
42066;SDS011;27734;47.028;28.820;2023-04-25T03:25:52;17.80;;;6.97;;
42066;SDS011;27734;47.028;28.820;2023-04-25T03:28:21;20.53;;;6.63;;
42066;SDS011;27734;47.028;28.820;2023-04-25T03:30:50;13.07;;;6.43;;
42066;SDS011;27734;47.028;28.820;2023-04-25T03:33:20;16.73;;;7.10;;
42066;SDS011;27734;47.028;28.820;2023-04-25T03:35:50;18.80;;;7.00;;
42066;SDS011;27734;47.028;28.820;2023-04-25T03:38:20;14.93;;;6.33;;
42066;SDS011;27734;47.028;28.820;2023-04-25T03:40:49;16.07;;;6.50;;
42066;SDS011;27734;47.028;28.820;2023-04-25T03:43:38;15.87;;;6.90;;
42066;SDS011;27734;47.028;28.820;2023-04-25T03:46:10;17.17;;;7.10;;
42066;SDS011;27734;47.028;28.820;2023-04-25T03:48:39;14.27;;;6.03;;
42066;SDS011;27734;47.028;28.820;2023-04-25T03:51:09;12.85;;;6.55;;
42066;SDS011;27734;47.028;28.820;2023-04-25T03:53:39;16.37;;;7.13;;
42066;SDS011;27734;47.028;28.820;2023-04-25T03:56:28;17.60;;;6.80;;
42066;SDS011;27734;47.028;28.820;2023-04-25T03:59:02;13.78;;;7.03;;
42066;SDS011;27734;47.028;28.820;2023-04-25T04:01:31;20.47;;;7.57;;
42066;SDS011;27734;47.028;28.820;2023-04-25T04:03:59;16.83;;;6.80;;
42066;SDS011;27734;47.028;28.820;2023-04-25T04:06:29;13.75;;;6.35;;
42066;SDS011;27734;47.028;28.820;2023-04-25T04:09:10;16.57;;;6.60;;
42066;SDS011;27734;47.028;28.820;2023-04-25T04:11:40;19.03;;;6.90;;
42066;SDS011;27734;47.028;28.820;2023-04-25T04:14:09;15.70;;;6.93;;
42066;SDS011;27734;47.028;28.820;2023-04-25T04:16:40;17.20;;;7.00;;
42066;SDS011;27734;47.028;28.820;2023-04-25T04:19:09;18.67;;;6.90;;
42066;SDS011;27734;47.028;28.820;2023-04-25T04:21:40;19.10;;;7.30;;
42066;SDS011;27734;47.028;28.820;2023-04-25T04:24:10;16.93;;;7.13;;
42066;SDS011;27734;47.028;28.820;2023-04-25T04:27:01;13.53;;;7.00;;
42066;SDS011;27734;47.028;28.820;2023-04-25T04:29:51;18.80;;;7.60;;
42066;SDS011;27734;47.028;28.820;2023-04-25T04:32:26;18.63;;;7.60;;
42066;SDS011;27734;47.028;28.820;2023-04-25T04:35:00;18.10;;;7.47;;
42066;SDS011;27734;47.028;28.820;2023-04-25T04:37:29;16.73;;;7.43;;
42066;SDS011;27734;47.028;28.820;2023-04-25T04:39:59;18.23;;;6.67;;
42066;SDS011;27734;47.028;28.820;2023-04-25T04:42:58;19.47;;;7.60;;
42066;SDS011;27734;47.028;28.820;2023-04-25T04:45:56;18.87;;;8.10;;
42066;SDS011;27734;47.028;28.820;2023-04-25T04:48:52;19.77;;;8.00;;
42066;SDS011;27734;47.028;28.820;2023-04-25T04:54:53;18.60;;;8.90;;
42066;SDS011;27734;47.028;28.820;2023-04-25T04:57:39;23.07;;;8.43;;
42066;SDS011;27734;47.028;28.820;2023-04-25T05:00:37;16.00;;;8.10;;
42066;SDS011;27734;47.028;28.820;2023-04-25T05:03:26;18.50;;;8.03;;
42066;SDS011;27734;47.028;28.820;2023-04-25T05:06:26;16.30;;;7.33;;
42066;SDS011;27734;47.028;28.820;2023-04-25T05:09:26;15.60;;;6.37;;
42066;SDS011;27734;47.028;28.820;2023-04-25T05:12:15;17.60;;;6.93;;
42066;SDS011;27734;47.028;28.820;2023-04-25T05:14:49;14.47;;;6.37;;
42066;SDS011;27734;47.028;28.820;2023-04-25T05:17:30;18.27;;;6.30;;
42066;SDS011;27734;47.028;28.820;2023-04-25T05:20:08;15.33;;;6.27;;
42066;SDS011;27734;47.028;28.820;2023-04-25T05:23:01;11.27;;;5.70;;
42066;SDS011;27734;47.028;28.820;2023-04-25T05:26:02;18.33;;;5.80;;
42066;SDS011;27734;47.028;28.820;2023-04-25T05:29:03;13.47;;;5.93;;
42066;SDS011;27734;47.028;28.820;2023-04-25T05:31:54;13.50;;;6.03;;
42066;SDS011;27734;47.028;28.820;2023-04-25T05:34:24;14.40;;;6.13;;
42066;SDS011;27734;47.028;28.820;2023-04-25T05:36:58;12.00;;;5.70;;
42066;SDS011;27734;47.028;28.820;2023-04-25T05:39:27;11.27;;;5.33;;
42066;SDS011;27734;47.028;28.820;2023-04-25T05:42:15;17.73;;;6.03;;
42066;SDS011;27734;47.028;28.820;2023-04-25T05:45:08;15.10;;;6.30;;
42066;SDS011;27734;47.028;28.820;2023-04-25T05:48:03;15.55;;;6.30;;
42066;SDS011;27734;47.028;28.820;2023-04-25T05:50:50;10.97;;;5.73;;
42066;SDS011;27734;47.028;28.820;2023-04-25T05:53:39;16.03;;;6.23;;
42066;SDS011;27734;47.028;28.820;2023-04-25T05:56:08;15.83;;;5.90;;
42066;SDS011;27734;47.028;28.820;2023-04-25T05:58:37;12.70;;;5.80;;
42066;SDS011;27734;47.028;28.820;2023-04-25T06:01:16;10.27;;;5.10;;
42066;SDS011;27734;47.028;28.820;2023-04-25T06:03:52;14.60;;;5.50;;
42066;SDS011;27734;47.028;28.820;2023-04-25T06:06:24;15.40;;;5.70;;
42066;SDS011;27734;47.028;28.820;2023-04-25T06:08:56;12.03;;;5.40;;
42066;SDS011;27734;47.028;28.820;2023-04-25T06:11:45;10.43;;;5.07;;
42066;SDS011;27734;47.028;28.820;2023-04-25T06:17:39;12.77;;;5.10;;
42066;SDS011;27734;47.028;28.820;2023-04-25T06:20:28;8.90;;;5.03;;
42066;SDS011;27734;47.028;28.820;2023-04-25T06:23:22;11.30;;;5.10;;
42066;SDS011;27734;47.028;28.820;2023-04-25T06:26:19;15.07;;;4.97;;
42066;SDS011;27734;47.028;28.820;2023-04-25T06:29:02;8.33;;;4.60;;
42066;SDS011;27734;47.028;28.820;2023-04-25T06:31:58;9.23;;;4.40;;
42066;SDS011;27734;47.028;28.820;2023-04-25T06:34:36;8.10;;;4.07;;
42066;SDS011;27734;47.028;28.820;2023-04-25T06:39:42;9.00;;;4.10;;
42066;SDS011;27734;47.028;28.820;2023-04-25T06:42:14;12.13;;;4.07;;
42066;SDS011;27734;47.028;28.820;2023-04-25T06:44:52;12.33;;;4.27;;
42066;SDS011;27734;47.028;28.820;2023-04-25T06:47:24;8.73;;;4.33;;
42066;SDS011;27734;47.028;28.820;2023-04-25T06:49:54;10.30;;;4.10;;
42066;SDS011;27734;47.028;28.820;2023-04-25T06:52:27;10.20;;;4.50;;
42066;SDS011;27734;47.028;28.820;2023-04-25T06:55:01;9.87;;;4.27;;
42066;SDS011;27734;47.028;28.820;2023-04-25T06:57:48;10.13;;;3.90;;
42066;SDS011;27734;47.028;28.820;2023-04-25T07:00:59;8.07;;;3.90;;
42066;SDS011;27734;47.028;28.820;2023-04-25T07:03:37;13.27;;;4.50;;
42066;SDS011;27734;47.028;28.820;2023-04-25T07:06:14;7.83;;;4.10;;
42066;SDS011;27734;47.028;28.820;2023-04-25T07:08:56;10.23;;;4.00;;
42066;SDS011;27734;47.028;28.820;2023-04-25T07:11:29;11.73;;;4.20;;
42066;SDS011;27734;47.028;28.820;2023-04-25T07:14:03;7.97;;;3.23;;
42066;SDS011;27734;47.028;28.820;2023-04-25T07:16:47;9.13;;;3.70;;
42066;SDS011;27734;47.028;28.820;2023-04-25T07:19:37;8.83;;;3.70;;
42066;SDS011;27734;47.028;28.820;2023-04-25T07:22:15;13.83;;;3.87;;
42066;SDS011;27734;47.028;28.820;2023-04-25T07:27:44;6.43;;;3.53;;
42066;SDS011;27734;47.028;28.820;2023-04-25T07:32:45;5.83;;;3.60;;
42066;SDS011;27734;47.028;28.820;2023-04-25T07:35:27;8.37;;;3.40;;
42066;SDS011;27734;47.028;28.820;2023-04-25T07:37:56;6.93;;;3.40;;
42066;SDS011;27734;47.028;28.820;2023-04-25T07:40:26;7.57;;;3.33;;
42066;SDS011;27734;47.028;28.820;2023-04-25T07:43:01;7.60;;;3.10;;
42066;SDS011;27734;47.028;28.820;2023-04-25T07:45:42;7.60;;;3.50;;
42066;SDS011;27734;47.028;28.820;2023-04-25T07:48:11;7.70;;;3.30;;
42066;SDS011;27734;47.028;28.820;2023-04-25T07:50:54;11.00;;;4.07;;
42066;SDS011;27734;47.028;28.820;2023-04-25T07:54:27;7.90;;;3.60;;
42066;SDS011;27734;47.028;28.820;2023-04-25T07:57:08;5.90;;;3.30;;
42066;SDS011;27734;47.028;28.820;2023-04-25T07:59:55;10.17;;;3.70;;
42066;SDS011;27734;47.028;28.820;2023-04-25T08:03:03;8.67;;;3.50;;
42066;SDS011;27734;47.028;28.820;2023-04-25T08:08:35;6.43;;;3.70;;
42066;SDS011;27734;47.028;28.820;2023-04-25T08:11:46;6.17;;;3.40;;
42066;SDS011;27734;47.028;28.820;2023-04-25T08:14:24;9.13;;;3.60;;
42066;SDS011;27734;47.028;28.820;2023-04-25T08:17:13;7.40;;;3.27;;
42066;SDS011;27734;47.028;28.820;2023-04-25T08:19:49;6.60;;;3.10;;
42066;SDS011;27734;47.028;28.820;2023-04-25T08:22:40;8.57;;;3.37;;
42066;SDS011;27734;47.028;28.820;2023-04-25T08:25:41;5.73;;;3.30;;
42066;SDS011;27734;47.028;28.820;2023-04-25T08:28:27;8.47;;;3.30;;
42066;SDS011;27734;47.028;28.820;2023-04-25T08:31:07;8.40;;;3.30;;
42066;SDS011;27734;47.028;28.820;2023-04-25T08:40:03;9.43;;;3.60;;
42066;SDS011;27734;47.028;28.820;2023-04-25T08:43:13;6.80;;;3.03;;
42066;SDS011;27734;47.028;28.820;2023-04-25T08:45:48;7.07;;;3.40;;
42066;SDS011;27734;47.028;28.820;2023-04-25T08:51:43;11.33;;;3.80;;
42066;SDS011;27734;47.028;28.820;2023-04-25T08:54:26;8.07;;;3.13;;
42066;SDS011;27734;47.028;28.820;2023-04-25T08:56:58;8.77;;;3.10;;
42066;SDS011;27734;47.028;28.820;2023-04-25T08:59:35;6.60;;;3.07;;
42066;SDS011;27734;47.028;28.820;2023-04-25T09:02:21;7.67;;;3.20;;
42066;SDS011;27734;47.028;28.820;2023-04-25T09:05:01;5.57;;;3.30;;
42066;SDS011;27734;47.028;28.820;2023-04-25T09:07:43;7.55;;;3.20;;
42066;SDS011;27734;47.028;28.820;2023-04-25T09:10:14;7.57;;;2.90;;
42066;SDS011;27734;47.028;28.820;2023-04-25T09:13:02;7.77;;;3.33;;
42066;SDS011;27734;47.028;28.820;2023-04-25T09:15:47;5.43;;;3.00;;
42066;SDS011;27734;47.028;28.820;2023-04-25T09:19:24;7.37;;;2.97;;
42066;SDS011;27734;47.028;28.820;2023-04-25T09:22:01;9.33;;;3.20;;
42066;SDS011;27734;47.028;28.820;2023-04-25T09:24:32;7.30;;;3.23;;
42066;SDS011;27734;47.028;28.820;2023-04-25T09:27:06;9.07;;;3.30;;
42066;SDS011;27734;47.028;28.820;2023-04-25T09:29:46;8.23;;;3.73;;
42066;SDS011;27734;47.028;28.820;2023-04-25T09:32:44;4.03;;;3.03;;
42066;SDS011;27734;47.028;28.820;2023-04-25T09:35:26;8.60;;;3.47;;
42066;SDS011;27734;47.028;28.820;2023-04-25T09:49:27;7.43;;;3.00;;
42066;SDS011;27734;47.028;28.820;2023-04-25T09:52:13;6.83;;;3.23;;
42066;SDS011;27734;47.028;28.820;2023-04-25T09:54:53;6.83;;;3.00;;
42066;SDS011;27734;47.028;28.820;2023-04-25T09:57:31;8.67;;;3.50;;
42066;SDS011;27734;47.028;28.820;2023-04-25T10:00:39;7.60;;;3.27;;
42066;SDS011;27734;47.028;28.820;2023-04-25T10:03:39;5.73;;;3.20;;
42066;SDS011;27734;47.028;28.820;2023-04-25T10:06:29;5.07;;;3.20;;
42066;SDS011;27734;47.028;28.820;2023-04-25T10:09:05;11.40;;;3.30;;
42066;SDS011;27734;47.028;28.820;2023-04-25T10:11:39;8.83;;;3.50;;
42066;SDS011;27734;47.028;28.820;2023-04-25T10:17:02;7.33;;;3.53;;
42066;SDS011;27734;47.028;28.820;2023-04-25T10:19:33;8.57;;;3.43;;
42066;SDS011;27734;47.028;28.820;2023-04-25T10:22:07;10.23;;;3.40;;
42066;SDS011;27734;47.028;28.820;2023-04-25T10:24:40;7.93;;;3.70;;
42066;SDS011;27734;47.028;28.820;2023-04-25T10:27:11;7.67;;;3.60;;
42066;SDS011;27734;47.028;28.820;2023-04-25T10:29:42;7.50;;;3.40;;
42066;SDS011;27734;47.028;28.820;2023-04-25T10:32:14;7.27;;;3.40;;
42066;SDS011;27734;47.028;28.820;2023-04-25T10:34:52;7.00;;;3.20;;
42066;SDS011;27734;47.028;28.820;2023-04-25T10:37:22;11.37;;;3.73;;
42066;SDS011;27734;47.028;28.820;2023-04-25T10:39:52;10.67;;;3.53;;
42066;SDS011;27734;47.028;28.820;2023-04-25T10:42:23;9.60;;;4.57;;
42066;SDS011;27734;47.028;28.820;2023-04-25T10:45:03;14.70;;;4.77;;
42066;SDS011;27734;47.028;28.820;2023-04-25T10:50:32;14.07;;;5.30;;
42066;SDS011;27734;47.028;28.820;2023-04-25T10:55:58;9.00;;;5.47;;
42066;SDS011;27734;47.028;28.820;2023-04-25T10:58:34;14.40;;;6.60;;
42066;SDS011;27734;47.028;28.820;2023-04-25T11:01:07;14.10;;;5.60;;
42066;SDS011;27734;47.028;28.820;2023-04-25T11:03:57;12.17;;;6.00;;
42066;SDS011;27734;47.028;28.820;2023-04-25T11:06:29;13.03;;;5.77;;
42066;SDS011;27734;47.028;28.820;2023-04-25T11:09:13;17.50;;;6.30;;
42066;SDS011;27734;47.028;28.820;2023-04-25T11:11:53;13.47;;;6.67;;
42066;SDS011;27734;47.028;28.820;2023-04-25T11:14:23;14.20;;;7.30;;
42066;SDS011;27734;47.028;28.820;2023-04-25T11:16:53;13.43;;;6.83;;
42066;SDS011;27734;47.028;28.820;2023-04-25T11:19:27;14.83;;;7.50;;
42066;SDS011;27734;47.028;28.820;2023-04-25T11:21:59;15.60;;;7.47;;
42066;SDS011;27734;47.028;28.820;2023-04-25T11:24:30;15.97;;;8.13;;
42066;SDS011;27734;47.028;28.820;2023-04-25T11:27:01;17.90;;;7.93;;
42066;SDS011;27734;47.028;28.820;2023-04-25T11:29:31;16.93;;;8.20;;
42066;SDS011;27734;47.028;28.820;2023-04-25T11:32:01;14.17;;;7.73;;
42066;SDS011;27734;47.028;28.820;2023-04-25T11:34:30;19.67;;;8.90;;
42066;SDS011;27734;47.028;28.820;2023-04-25T11:37:00;17.17;;;8.97;;
42066;SDS011;27734;47.028;28.820;2023-04-25T11:39:30;17.10;;;8.70;;
42066;SDS011;27734;47.028;28.820;2023-04-25T11:42:01;18.10;;;8.90;;
42066;SDS011;27734;47.028;28.820;2023-04-25T11:44:34;19.73;;;8.80;;
42066;SDS011;27734;47.028;28.820;2023-04-25T11:47:12;19.93;;;9.33;;
42066;SDS011;27734;47.028;28.820;2023-04-25T11:49:44;18.77;;;9.83;;
42066;SDS011;27734;47.028;28.820;2023-04-25T11:52:19;16.10;;;7.50;;
42066;SDS011;27734;47.028;28.820;2023-04-25T11:54:51;17.10;;;8.00;;
42066;SDS011;27734;47.028;28.820;2023-04-25T11:57:26;19.10;;;9.47;;
42066;SDS011;27734;47.028;28.820;2023-04-25T12:00:34;16.47;;;8.77;;
42066;SDS011;27734;47.028;28.820;2023-04-25T12:06:21;18.65;;;8.10;;
42066;SDS011;27734;47.028;28.820;2023-04-25T12:09:00;15.93;;;8.43;;
42066;SDS011;27734;47.028;28.820;2023-04-25T12:11:41;18.13;;;8.70;;
42066;SDS011;27734;47.028;28.820;2023-04-25T12:14:21;20.07;;;9.47;;
42066;SDS011;27734;47.028;28.820;2023-04-25T12:16:51;18.20;;;9.20;;
42066;SDS011;27734;47.028;28.820;2023-04-25T12:19:22;21.97;;;9.47;;
42066;SDS011;27734;47.028;28.820;2023-04-25T12:21:52;18.50;;;9.30;;
42066;SDS011;27734;47.028;28.820;2023-04-25T12:24:22;20.35;;;9.30;;
42066;SDS011;27734;47.028;28.820;2023-04-25T12:29:53;20.20;;;9.87;;
42066;SDS011;27734;47.028;28.820;2023-04-25T12:32:23;20.17;;;10.20;;
42066;SDS011;27734;47.028;28.820;2023-04-25T12:34:53;18.87;;;10.87;;
42066;SDS011;27734;47.028;28.820;2023-04-25T12:37:23;21.03;;;11.23;;
42066;SDS011;27734;47.028;28.820;2023-04-25T12:39:52;17.73;;;10.03;;
42066;SDS011;27734;47.028;28.820;2023-04-25T12:42:21;19.30;;;9.83;;
42066;SDS011;27734;47.028;28.820;2023-04-25T12:44:50;20.63;;;10.70;;
42066;SDS011;27734;47.028;28.820;2023-04-25T12:47:22;18.30;;;10.07;;
42066;SDS011;27734;47.028;28.820;2023-04-25T12:49:50;19.83;;;10.40;;
42066;SDS011;27734;47.028;28.820;2023-04-25T12:52:24;17.60;;;9.80;;
42066;SDS011;27734;47.028;28.820;2023-04-25T12:54:56;19.67;;;10.88;;
42066;SDS011;27734;47.028;28.820;2023-04-25T12:57:33;21.03;;;10.87;;
42066;SDS011;27734;47.028;28.820;2023-04-25T13:00:12;21.40;;;11.97;;
42066;SDS011;27734;47.028;28.820;2023-04-25T13:02:44;20.63;;;10.90;;
42066;SDS011;27734;47.028;28.820;2023-04-25T13:05:14;21.23;;;11.20;;
42066;SDS011;27734;47.028;28.820;2023-04-25T13:07:42;21.13;;;11.77;;
42066;SDS011;27734;47.028;28.820;2023-04-25T13:10:11;21.60;;;11.37;;
42066;SDS011;27734;47.028;28.820;2023-04-25T13:12:40;21.40;;;11.97;;
42066;SDS011;27734;47.028;28.820;2023-04-25T13:15:09;22.87;;;12.00;;
42066;SDS011;27734;47.028;28.820;2023-04-25T13:17:38;21.80;;;12.67;;
42066;SDS011;27734;47.028;28.820;2023-04-25T13:20:08;21.97;;;12.90;;
42066;SDS011;27734;47.028;28.820;2023-04-25T13:22:38;24.63;;;13.10;;
42066;SDS011;27734;47.028;28.820;2023-04-25T13:25:07;25.07;;;13.03;;
42066;SDS011;27734;47.028;28.820;2023-04-25T13:27:38;23.33;;;13.70;;
42066;SDS011;27734;47.028;28.820;2023-04-25T13:30:08;25.33;;;13.50;;
42066;SDS011;27734;47.028;28.820;2023-04-25T13:32:38;23.93;;;13.57;;
42066;SDS011;27734;47.028;28.820;2023-04-25T13:35:07;26.10;;;13.40;;
42066;SDS011;27734;47.028;28.820;2023-04-25T13:37:39;23.97;;;14.23;;
42066;SDS011;27734;47.028;28.820;2023-04-25T13:40:09;23.27;;;13.37;;
42066;SDS011;27734;47.028;28.820;2023-04-25T13:42:38;22.40;;;13.63;;
42066;SDS011;27734;47.028;28.820;2023-04-25T13:45:10;22.90;;;12.20;;
42066;SDS011;27734;47.028;28.820;2023-04-25T13:47:43;23.80;;;13.58;;
42066;SDS011;27734;47.028;28.820;2023-04-25T13:50:12;23.17;;;13.73;;
42066;SDS011;27734;47.028;28.820;2023-04-25T13:52:42;23.27;;;13.10;;
42066;SDS011;27734;47.028;28.820;2023-04-25T13:55:12;23.77;;;13.57;;
42066;SDS011;27734;47.028;28.820;2023-04-25T13:57:40;23.77;;;13.43;;
42066;SDS011;27734;47.028;28.820;2023-04-25T14:00:12;26.03;;;13.40;;
42066;SDS011;27734;47.028;28.820;2023-04-25T14:02:43;26.13;;;14.23;;
42066;SDS011;27734;47.028;28.820;2023-04-25T14:05:14;21.05;;;12.75;;
42066;SDS011;27734;47.028;28.820;2023-04-25T14:07:42;23.53;;;13.47;;
42066;SDS011;27734;47.028;28.820;2023-04-25T14:10:14;23.67;;;13.50;;
42066;SDS011;27734;47.028;28.820;2023-04-25T14:12:42;25.17;;;14.13;;
42066;SDS011;27734;47.028;28.820;2023-04-25T14:15:17;22.90;;;12.80;;
42066;SDS011;27734;47.028;28.820;2023-04-25T14:17:46;25.53;;;13.63;;
42066;SDS011;27734;47.028;28.820;2023-04-25T14:20:16;21.73;;;13.30;;
42066;SDS011;27734;47.028;28.820;2023-04-25T14:22:48;22.67;;;12.30;;
42066;SDS011;27734;47.028;28.820;2023-04-25T14:25:20;23.53;;;12.90;;
42066;SDS011;27734;47.028;28.820;2023-04-25T14:27:49;22.23;;;12.60;;
42066;SDS011;27734;47.028;28.820;2023-04-25T14:30:18;23.47;;;13.13;;
42066;SDS011;27734;47.028;28.820;2023-04-25T14:32:53;23.10;;;11.53;;
42066;SDS011;27734;47.028;28.820;2023-04-25T14:35:23;21.67;;;11.40;;
42066;SDS011;27734;47.028;28.820;2023-04-25T14:37:51;19.10;;;11.17;;
42066;SDS011;27734;47.028;28.820;2023-04-25T14:40:21;20.23;;;11.10;;
42066;SDS011;27734;47.028;28.820;2023-04-25T14:42:51;17.30;;;10.13;;
42066;SDS011;27734;47.028;28.820;2023-04-25T14:45:22;18.83;;;9.07;;
42066;SDS011;27734;47.028;28.820;2023-04-25T14:48:04;18.43;;;8.90;;
42066;SDS011;27734;47.028;28.820;2023-04-25T14:50:34;17.67;;;8.80;;
42066;SDS011;27734;47.028;28.820;2023-04-25T14:53:06;17.63;;;8.10;;
42066;SDS011;27734;47.028;28.820;2023-04-25T14:55:36;17.97;;;9.13;;
42066;SDS011;27734;47.028;28.820;2023-04-25T14:58:04;16.93;;;8.73;;
42066;SDS011;27734;47.028;28.820;2023-04-25T15:00:33;17.10;;;8.37;;
42066;SDS011;27734;47.028;28.820;2023-04-25T15:03:02;17.43;;;8.47;;
42066;SDS011;27734;47.028;28.820;2023-04-25T15:05:31;17.37;;;8.50;;
42066;SDS011;27734;47.028;28.820;2023-04-25T15:07:59;17.90;;;7.53;;
42066;SDS011;27734;47.028;28.820;2023-04-25T15:10:37;17.63;;;8.47;;
42066;SDS011;27734;47.028;28.820;2023-04-25T15:13:05;16.30;;;8.03;;
42066;SDS011;27734;47.028;28.820;2023-04-25T15:15:36;15.90;;;7.67;;
42066;SDS011;27734;47.028;28.820;2023-04-25T15:18:04;17.43;;;8.37;;
42066;SDS011;27734;47.028;28.820;2023-04-25T15:20:33;14.87;;;7.50;;
42066;SDS011;27734;47.028;28.820;2023-04-25T15:23:05;15.53;;;7.57;;
42066;SDS011;27734;47.028;28.820;2023-04-25T15:25:36;13.97;;;7.33;;
42066;SDS011;27734;47.028;28.820;2023-04-25T15:28:05;14.27;;;7.40;;
42066;SDS011;27734;47.028;28.820;2023-04-25T15:30:33;15.27;;;7.30;;
42066;SDS011;27734;47.028;28.820;2023-04-25T15:33:02;12.60;;;6.60;;
42066;SDS011;27734;47.028;28.820;2023-04-25T15:35:30;17.77;;;7.13;;
42066;SDS011;27734;47.028;28.820;2023-04-25T15:38:01;15.07;;;7.00;;
42066;SDS011;27734;47.028;28.820;2023-04-25T15:40:29;16.50;;;6.90;;
42066;SDS011;27734;47.028;28.820;2023-04-25T15:42:58;14.43;;;6.80;;
42066;SDS011;27734;47.028;28.820;2023-04-25T15:45:26;12.47;;;6.20;;
42066;SDS011;27734;47.028;28.820;2023-04-25T15:47:55;14.70;;;6.80;;
42066;SDS011;27734;47.028;28.820;2023-04-25T15:50:24;13.70;;;6.47;;
42066;SDS011;27734;47.028;28.820;2023-04-25T15:52:52;11.70;;;6.27;;
42066;SDS011;27734;47.028;28.820;2023-04-25T15:55:21;13.30;;;6.17;;
42066;SDS011;27734;47.028;28.820;2023-04-25T15:57:52;13.90;;;6.53;;
42066;SDS011;27734;47.028;28.820;2023-04-25T16:00:21;14.40;;;6.57;;